sensor_id;sensor_type;location;lat;lon;timestamp;temperature;humidity
12843;DHT22;35724;49.324;-123.118;2022-09-03T00:00:31;27.00;95.80
12843;DHT22;35724;49.324;-123.118;2022-09-03T00:10:46;27.50;93.70
12843;DHT22;35724;49.324;-123.118;2022-09-03T00:20:59;27.70;93.40
12843;DHT22;35724;49.324;-123.118;2022-09-03T00:31:19;28.10;90.90
12843;DHT22;35724;49.324;-123.118;2022-09-03T00:41:35;28.80;84.90
12843;DHT22;35724;49.324;-123.118;2022-09-03T00:51:52;29.30;83.20
12843;DHT22;35724;49.324;-123.118;2022-09-03T01:02:10;29.10;81.90
12843;DHT22;35724;49.324;-123.118;2022-09-03T01:12:31;28.50;77.00
12843;DHT22;35724;49.324;-123.118;2022-09-03T01:23:15;28.00;79.10
12843;DHT22;35724;49.324;-123.118;2022-09-03T01:33:36;27.60;83.00
12843;DHT22;35724;49.324;-123.118;2022-09-03T01:43:52;27.50;89.70
12843;DHT22;35724;49.324;-123.118;2022-09-03T01:54:31;27.20;92.40
12843;DHT22;35724;49.324;-123.118;2022-09-03T02:04:57;26.90;93.30
12843;DHT22;35724;49.324;-123.118;2022-09-03T02:15:10;26.70;93.90
12843;DHT22;35724;49.324;-123.118;2022-09-03T02:25:18;26.20;95.40
12843;DHT22;35724;49.324;-123.118;2022-09-03T02:35:27;25.90;96.10
12843;DHT22;35724;49.324;-123.118;2022-09-03T02:45:35;25.60;97.20
12843;DHT22;35724;49.324;-123.118;2022-09-03T02:55:45;25.40;97.60
12843;DHT22;35724;49.324;-123.118;2022-09-03T03:05:54;25.30;97.90
12843;DHT22;35724;49.324;-123.118;2022-09-03T03:16:05;25.20;97.70
12843;DHT22;35724;49.324;-123.118;2022-09-03T03:26:14;25.10;96.90
12843;DHT22;35724;49.324;-123.118;2022-09-03T03:36:26;25.10;96.00
12843;DHT22;35724;49.324;-123.118;2022-09-03T03:46:34;25.00;96.50
12843;DHT22;35724;49.324;-123.118;2022-09-03T03:56:45;25.00;97.50
12843;DHT22;35724;49.324;-123.118;2022-09-03T04:06:58;25.00;97.90
12843;DHT22;35724;49.324;-123.118;2022-09-03T04:17:07;25.00;97.90
12843;DHT22;35724;49.324;-123.118;2022-09-03T04:37:55;24.90;97.20
12843;DHT22;35724;49.324;-123.118;2022-09-03T04:48:18;25.00;97.00
12843;DHT22;35724;49.324;-123.118;2022-09-03T05:11:23;25.00;97.60
12843;DHT22;35724;49.324;-123.118;2022-09-03T05:34:08;24.70;99.10
12843;DHT22;35724;49.324;-123.118;2022-09-03T05:44:37;24.60;99.00
12843;DHT22;35724;49.324;-123.118;2022-09-03T05:54:55;24.60;99.10
12843;DHT22;35724;49.324;-123.118;2022-09-03T06:05:07;24.60;99.30
12843;DHT22;35724;49.324;-123.118;2022-09-03T06:15:19;24.70;99.40
12843;DHT22;35724;49.324;-123.118;2022-09-03T06:25:30;24.90;96.60
12843;DHT22;35724;49.324;-123.118;2022-09-03T06:35:41;25.00;95.70
12843;DHT22;35724;49.324;-123.118;2022-09-03T06:45:57;25.00;94.90
12843;DHT22;35724;49.324;-123.118;2022-09-03T06:56:52;25.00;92.60
12843;DHT22;35724;49.324;-123.118;2022-09-03T07:07:41;25.00;90.70
12843;DHT22;35724;49.324;-123.118;2022-09-03T07:18:14;24.90;91.80
12843;DHT22;35724;49.324;-123.118;2022-09-03T07:29:06;24.90;93.00
12843;DHT22;35724;49.324;-123.118;2022-09-03T07:40:55;24.80;93.40
12843;DHT22;35724;49.324;-123.118;2022-09-03T07:52:22;24.80;93.90
12843;DHT22;35724;49.324;-123.118;2022-09-03T08:03:30;24.80;94.10
12843;DHT22;35724;49.324;-123.118;2022-09-03T08:14:24;24.70;94.00
12843;DHT22;35724;49.324;-123.118;2022-09-03T08:24:46;24.70;94.00
12843;DHT22;35724;49.324;-123.118;2022-09-03T08:35:04;24.70;93.80
12843;DHT22;35724;49.324;-123.118;2022-09-03T08:56:31;24.60;93.00
12843;DHT22;35724;49.324;-123.118;2022-09-03T09:06:47;24.60;92.90
12843;DHT22;35724;49.324;-123.118;2022-09-03T10:18:27;24.40;91.70
12843;DHT22;35724;49.324;-123.118;2022-09-03T10:53:12;24.30;91.60
12843;DHT22;35724;49.324;-123.118;2022-09-03T11:27:57;24.30;90.20
12843;DHT22;35724;49.324;-123.118;2022-09-03T11:39:11;24.30;90.10
12843;DHT22;35724;49.324;-123.118;2022-09-03T11:50:49;24.30;89.30
12843;DHT22;35724;49.324;-123.118;2022-09-03T15:29:05;24.10;89.20
12843;DHT22;35724;49.324;-123.118;2022-09-03T16:15:40;24.40;89.00
12843;DHT22;35724;49.324;-123.118;2022-09-03T16:25:54;24.30;86.70
12843;DHT22;35724;49.324;-123.118;2022-09-03T16:36:17;24.20;86.30
12843;DHT22;35724;49.324;-123.118;2022-09-03T16:46:59;24.30;86.40
12843;DHT22;35724;49.324;-123.118;2022-09-03T17:59:03;25.50;87.70
12843;DHT22;35724;49.324;-123.118;2022-09-03T18:09:22;25.70;81.90
12843;DHT22;35724;49.324;-123.118;2022-09-03T18:19:37;25.70;78.80
12843;DHT22;35724;49.324;-123.118;2022-09-03T18:42:15;25.60;75.80
12843;DHT22;35724;49.324;-123.118;2022-09-03T18:53:09;25.80;74.80
12843;DHT22;35724;49.324;-123.118;2022-09-03T19:52:58;26.70;72.30
12843;DHT22;35724;49.324;-123.118;2022-09-03T20:17:04;26.20;75.00
12843;DHT22;35724;49.324;-123.118;2022-09-03T20:27:21;26.00;76.10
12843;DHT22;35724;49.324;-123.118;2022-09-03T20:37:53;25.90;73.90
12843;DHT22;35724;49.324;-123.118;2022-09-03T20:48:18;25.70;72.30
12843;DHT22;35724;49.324;-123.118;2022-09-03T20:58:56;25.70;71.70
12843;DHT22;35724;49.324;-123.118;2022-09-03T21:21:28;25.80;72.00
12843;DHT22;35724;49.324;-123.118;2022-09-03T21:32:09;26.00;71.30
12843;DHT22;35724;49.324;-123.118;2022-09-03T21:42:23;26.10;70.40
12843;DHT22;35724;49.324;-123.118;2022-09-03T21:52:38;26.40;69.10
12843;DHT22;35724;49.324;-123.118;2022-09-03T22:02:49;26.60;67.70
12843;DHT22;35724;49.324;-123.118;2022-09-03T22:13:05;27.00;66.40
12843;DHT22;35724;49.324;-123.118;2022-09-03T22:23:28;27.30;66.10
12843;DHT22;35724;49.324;-123.118;2022-09-03T22:33:53;27.80;64.30
12843;DHT22;35724;49.324;-123.118;2022-09-03T22:44:14;28.40;65.20
12843;DHT22;35724;49.324;-123.118;2022-09-03T22:54:37;28.50;65.70
12843;DHT22;35724;49.324;-123.118;2022-09-03T23:04:57;28.50;63.50
12843;DHT22;35724;49.324;-123.118;2022-09-03T23:15:06;28.60;62.30
12843;DHT22;35724;49.324;-123.118;2022-09-03T23:25:20;29.20;58.80
12843;DHT22;35724;49.324;-123.118;2022-09-03T23:35:29;30.00;57.40
12843;DHT22;35724;49.324;-123.118;2022-09-03T23:45:45;30.70;55.40
12843;DHT22;35724;49.324;-123.118;2022-09-03T23:56:12;31.10;53.90
